Terminal Aerodrome Forecast
Issued by NWS North Platte, NE

Home | Current Version | Previous Version | Text Only | Print | Product List | Glossary Off
Versions: 1 2 3 4 5 6 7 8 9 10 11 12 13 14 15 16 17

000
FTUS43 KLBF 261720
TAFVTN
TAF
KVTN 261720Z 2618/2718 11005KT P6SM SCT160
     FM262100 09007KT P6SM SCT050 BKN100
     FM270400 06009KT P6SM VCSH BKN050
     FM271000 VRB02KT P6SM OVC060
     FM271400 01014G20KT P6SM BKN070=

USA.gov is the U.S. government's official web portal to all federal, state and local government web resources and services.